sensor_id;sensor_type;location;lat;lon;timestamp;P1;durP1;ratioP1;P2;durP2;ratioP2
51515;SDS011;37603;55.614;37.326;2023-02-23T00:05:47;13.0;;;4.4;;
51515;SDS011;37603;55.614;37.326;2023-02-23T00:11:45;13.2;;;4.3;;
51515;SDS011;37603;55.614;37.326;2023-02-23T00:17:43;6.9;;;3.4;;
51515;SDS011;37603;55.614;37.326;2023-02-23T00:23:42;12.7;;;3.9;;
51515;SDS011;37603;55.614;37.326;2023-02-23T00:35:37;11.9;;;4.0;;
51515;SDS011;37603;55.614;37.326;2023-02-23T00:41:35;9.0;;;3.5;;
51515;SDS011;37603;55.614;37.326;2023-02-23T00:47:33;9.7;;;3.5;;
51515;SDS011;37603;55.614;37.326;2023-02-23T00:53:31;9.6;;;3.7;;
51515;SDS011;37603;55.614;37.326;2023-02-23T00:59:29;9.5;;;3.3;;
51515;SDS011;37603;55.614;37.326;2023-02-23T01:05:27;11.3;;;4.6;;
51515;SDS011;37603;55.614;37.326;2023-02-23T01:11:26;13.3;;;3.9;;
51515;SDS011;37603;55.614;37.326;2023-02-23T01:17:24;7.5;;;3.7;;
51515;SDS011;37603;55.614;37.326;2023-02-23T01:23:22;9.0;;;3.4;;
51515;SDS011;37603;55.614;37.326;2023-02-23T01:29:20;8.9;;;3.7;;
51515;SDS011;37603;55.614;37.326;2023-02-23T01:35:18;6.4;;;2.4;;
51515;SDS011;37603;55.614;37.326;2023-02-23T01:41:16;8.9;;;3.6;;
51515;SDS011;37603;55.614;37.326;2023-02-23T01:47:14;10.5;;;3.5;;
51515;SDS011;37603;55.614;37.326;2023-02-23T01:53:12;9.1;;;3.5;;
51515;SDS011;37603;55.614;37.326;2023-02-23T01:59:11;8.2;;;3.3;;
51515;SDS011;37603;55.614;37.326;2023-02-23T02:05:08;9.6;;;3.8;;
51515;SDS011;37603;55.614;37.326;2023-02-23T02:11:06;7.4;;;3.1;;
51515;SDS011;37603;55.614;37.326;2023-02-23T02:17:06;11.0;;;3.5;;
51515;SDS011;37603;55.614;37.326;2023-02-23T02:23:13;8.4;;;3.5;;
51515;SDS011;37603;55.614;37.326;2023-02-23T02:35:04;11.6;;;3.9;;
51515;SDS011;37603;55.614;37.326;2023-02-23T02:40:58;6.3;;;3.1;;
51515;SDS011;37603;55.614;37.326;2023-02-23T02:46:56;12.8;;;3.7;;
51515;SDS011;37603;55.614;37.326;2023-02-23T02:52:54;10.1;;;3.6;;
51515;SDS011;37603;55.614;37.326;2023-02-23T02:58:51;11.0;;;3.7;;
51515;SDS011;37603;55.614;37.326;2023-02-23T03:04:49;15.9;;;3.8;;
51515;SDS011;37603;55.614;37.326;2023-02-23T03:10:49;10.0;;;3.3;;
51515;SDS011;37603;55.614;37.326;2023-02-23T03:16:47;12.9;;;3.2;;
51515;SDS011;37603;55.614;37.326;2023-02-23T03:22:45;9.2;;;3.4;;
51515;SDS011;37603;55.614;37.326;2023-02-23T03:28:43;10.7;;;3.8;;
51515;SDS011;37603;55.614;37.326;2023-02-23T03:34:39;9.0;;;3.6;;
51515;SDS011;37603;55.614;37.326;2023-02-23T03:40:37;8.5;;;2.7;;
51515;SDS011;37603;55.614;37.326;2023-02-23T03:46:35;12.6;;;3.5;;
51515;SDS011;37603;55.614;37.326;2023-02-23T03:52:34;7.5;;;3.4;;
51515;SDS011;37603;55.614;37.326;2023-02-23T03:58:32;10.0;;;3.6;;
51515;SDS011;37603;55.614;37.326;2023-02-23T04:04:29;9.7;;;2.9;;
51515;SDS011;37603;55.614;37.326;2023-02-23T04:10:27;8.0;;;3.5;;
51515;SDS011;37603;55.614;37.326;2023-02-23T04:16:25;9.1;;;3.5;;
51515;SDS011;37603;55.614;37.326;2023-02-23T04:22:23;10.0;;;3.7;;
51515;SDS011;37603;55.614;37.326;2023-02-23T04:28:22;8.5;;;3.4;;
51515;SDS011;37603;55.614;37.326;2023-02-23T04:34:19;8.6;;;3.2;;
51515;SDS011;37603;55.614;37.326;2023-02-23T04:40:17;11.3;;;3.3;;
51515;SDS011;37603;55.614;37.326;2023-02-23T04:46:15;6.4;;;2.7;;
51515;SDS011;37603;55.614;37.326;2023-02-23T04:52:13;9.7;;;2.8;;
51515;SDS011;37603;55.614;37.326;2023-02-23T04:58:11;7.9;;;3.0;;
51515;SDS011;37603;55.614;37.326;2023-02-23T05:04:09;4.8;;;3.0;;
51515;SDS011;37603;55.614;37.326;2023-02-23T05:10:08;7.6;;;2.8;;
51515;SDS011;37603;55.614;37.326;2023-02-23T05:16:06;6.5;;;2.3;;
51515;SDS011;37603;55.614;37.326;2023-02-23T05:22:03;7.8;;;3.4;;
51515;SDS011;37603;55.614;37.326;2023-02-23T05:28:01;7.6;;;3.5;;
51515;SDS011;37603;55.614;37.326;2023-02-23T05:33:59;11.0;;;3.1;;
51515;SDS011;37603;55.614;37.326;2023-02-23T05:39:57;9.3;;;3.5;;
51515;SDS011;37603;55.614;37.326;2023-02-23T05:45:55;7.6;;;3.4;;
51515;SDS011;37603;55.614;37.326;2023-02-23T05:51:53;7.5;;;3.3;;
51515;SDS011;37603;55.614;37.326;2023-02-23T05:57:51;8.5;;;3.7;;
51515;SDS011;37603;55.614;37.326;2023-02-23T06:03:49;6.7;;;2.7;;
51515;SDS011;37603;55.614;37.326;2023-02-23T06:09:48;10.0;;;3.7;;
51515;SDS011;37603;55.614;37.326;2023-02-23T06:15:46;5.8;;;2.7;;
51515;SDS011;37603;55.614;37.326;2023-02-23T06:21:44;8.2;;;3.3;;
51515;SDS011;37603;55.614;37.326;2023-02-23T06:27:42;8.5;;;2.7;;
51515;SDS011;37603;55.614;37.326;2023-02-23T06:33:40;9.3;;;3.7;;
51515;SDS011;37603;55.614;37.326;2023-02-23T06:39:38;11.7;;;3.4;;
51515;SDS011;37603;55.614;37.326;2023-02-23T06:45:36;11.3;;;4.1;;
51515;SDS011;37603;55.614;37.326;2023-02-23T06:51:34;13.1;;;4.2;;
51515;SDS011;37603;55.614;37.326;2023-02-23T06:57:32;7.4;;;3.3;;
51515;SDS011;37603;55.614;37.326;2023-02-23T07:03:30;8.0;;;3.0;;
51515;SDS011;37603;55.614;37.326;2023-02-23T07:09:28;11.1;;;4.1;;
51515;SDS011;37603;55.614;37.326;2023-02-23T07:15:27;9.7;;;4.0;;
51515;SDS011;37603;55.614;37.326;2023-02-23T07:21:25;8.6;;;3.3;;
51515;SDS011;37603;55.614;37.326;2023-02-23T07:26:11;8.6;;;3.3;;
51515;SDS011;37603;55.614;37.326;2023-02-23T07:27:23;14.2;;;4.5;;
51515;SDS011;37603;55.614;37.326;2023-02-23T07:33:21;11.1;;;4.1;;
51515;SDS011;37603;55.614;37.326;2023-02-23T07:39:19;13.3;;;4.7;;
51515;SDS011;37603;55.614;37.326;2023-02-23T07:45:17;8.7;;;3.5;;
51515;SDS011;37603;55.614;37.326;2023-02-23T07:51:16;13.5;;;4.3;;
51515;SDS011;37603;55.614;37.326;2023-02-23T07:57:14;9.8;;;4.2;;
51515;SDS011;37603;55.614;37.326;2023-02-23T08:03:12;11.8;;;4.2;;
51515;SDS011;37603;55.614;37.326;2023-02-23T08:09:10;10.6;;;3.9;;
51515;SDS011;37603;55.614;37.326;2023-02-23T08:15:09;7.9;;;3.6;;
51515;SDS011;37603;55.614;37.326;2023-02-23T08:21:07;11.5;;;3.5;;
51515;SDS011;37603;55.614;37.326;2023-02-23T08:27:05;10.2;;;3.8;;
51515;SDS011;37603;55.614;37.326;2023-02-23T08:33:03;9.8;;;4.2;;
51515;SDS011;37603;55.614;37.326;2023-02-23T08:39:02;10.5;;;3.6;;
51515;SDS011;37603;55.614;37.326;2023-02-23T08:45:00;7.1;;;3.2;;
51515;SDS011;37603;55.614;37.326;2023-02-23T08:50:58;9.8;;;3.6;;
51515;SDS011;37603;55.614;37.326;2023-02-23T08:56:56;15.2;;;3.8;;
51515;SDS011;37603;55.614;37.326;2023-02-23T09:02:54;7.3;;;3.0;;
51515;SDS011;37603;55.614;37.326;2023-02-23T09:08:53;9.3;;;3.4;;
51515;SDS011;37603;55.614;37.326;2023-02-23T09:14:51;5.9;;;3.0;;
51515;SDS011;37603;55.614;37.326;2023-02-23T09:20:49;10.1;;;3.4;;
51515;SDS011;37603;55.614;37.326;2023-02-23T09:26:48;7.1;;;3.0;;
51515;SDS011;37603;55.614;37.326;2023-02-23T09:32:46;8.4;;;3.6;;
51515;SDS011;37603;55.614;37.326;2023-02-23T09:38:44;13.5;;;6.1;;
51515;SDS011;37603;55.614;37.326;2023-02-23T09:44:47;7.9;;;2.7;;
51515;SDS011;37603;55.614;37.326;2023-02-23T09:50:41;8.9;;;2.8;;
51515;SDS011;37603;55.614;37.326;2023-02-23T09:56:39;6.4;;;2.8;;
51515;SDS011;37603;55.614;37.326;2023-02-23T10:02:37;9.2;;;3.4;;
51515;SDS011;37603;55.614;37.326;2023-02-23T10:08:40;8.3;;;2.9;;
51515;SDS011;37603;55.614;37.326;2023-02-23T10:14:39;6.3;;;3.2;;
51515;SDS011;37603;55.614;37.326;2023-02-23T10:20:35;7.4;;;3.2;;
51515;SDS011;37603;55.614;37.326;2023-02-23T10:26:32;11.4;;;5.2;;
51515;SDS011;37603;55.614;37.326;2023-02-23T10:32:31;8.5;;;3.6;;
51515;SDS011;37603;55.614;37.326;2023-02-23T10:38:27;6.9;;;3.1;;
51515;SDS011;37603;55.614;37.326;2023-02-23T10:44:25;11.5;;;3.7;;
51515;SDS011;37603;55.614;37.326;2023-02-23T10:50:23;6.7;;;3.1;;
51515;SDS011;37603;55.614;37.326;2023-02-23T10:56:21;8.8;;;3.7;;
51515;SDS011;37603;55.614;37.326;2023-02-23T11:02:21;10.3;;;3.5;;
51515;SDS011;37603;55.614;37.326;2023-02-23T11:08:19;6.1;;;2.5;;
51515;SDS011;37603;55.614;37.326;2023-02-23T11:14:16;5.8;;;2.9;;
51515;SDS011;37603;55.614;37.326;2023-02-23T11:20:21;6.9;;;2.9;;
51515;SDS011;37603;55.614;37.326;2023-02-23T11:26:19;5.9;;;3.1;;
51515;SDS011;37603;55.614;37.326;2023-02-23T11:32:12;7.6;;;2.8;;
51515;SDS011;37603;55.614;37.326;2023-02-23T11:38:14;6.5;;;2.9;;
51515;SDS011;37603;55.614;37.326;2023-02-23T11:44:18;8.9;;;3.6;;
51515;SDS011;37603;55.614;37.326;2023-02-23T11:50:06;6.7;;;3.0;;
51515;SDS011;37603;55.614;37.326;2023-02-23T11:56:05;8.1;;;3.0;;
51515;SDS011;37603;55.614;37.326;2023-02-23T12:02:04;10.1;;;3.9;;
51515;SDS011;37603;55.614;37.326;2023-02-23T12:08:02;12.0;;;3.4;;
51515;SDS011;37603;55.614;37.326;2023-02-23T12:14:01;9.0;;;3.7;;
51515;SDS011;37603;55.614;37.326;2023-02-23T12:19:58;9.3;;;3.8;;
51515;SDS011;37603;55.614;37.326;2023-02-23T12:25:57;8.3;;;3.4;;
51515;SDS011;37603;55.614;37.326;2023-02-23T12:31:55;8.5;;;3.4;;
51515;SDS011;37603;55.614;37.326;2023-02-23T12:37:54;10.2;;;3.6;;
51515;SDS011;37603;55.614;37.326;2023-02-23T12:43:52;9.1;;;3.5;;
51515;SDS011;37603;55.614;37.326;2023-02-23T12:49:51;9.6;;;3.1;;
51515;SDS011;37603;55.614;37.326;2023-02-23T12:55:53;9.9;;;4.2;;
51515;SDS011;37603;55.614;37.326;2023-02-23T13:01:48;9.0;;;3.5;;
51515;SDS011;37603;55.614;37.326;2023-02-23T13:07:47;9.3;;;3.5;;
51515;SDS011;37603;55.614;37.326;2023-02-23T13:13:44;9.6;;;3.6;;
51515;SDS011;37603;55.614;37.326;2023-02-23T13:19:44;10.6;;;3.4;;
51515;SDS011;37603;55.614;37.326;2023-02-23T13:25:41;11.1;;;3.5;;
51515;SDS011;37603;55.614;37.326;2023-02-23T13:31:38;6.5;;;3.2;;
51515;SDS011;37603;55.614;37.326;2023-02-23T13:37:37;8.5;;;3.4;;
51515;SDS011;37603;55.614;37.326;2023-02-23T13:43:37;7.9;;;3.8;;
51515;SDS011;37603;55.614;37.326;2023-02-23T13:49:35;11.3;;;4.6;;
51515;SDS011;37603;55.614;37.326;2023-02-23T13:55:32;9.8;;;3.4;;
51515;SDS011;37603;55.614;37.326;2023-02-23T14:01:30;12.1;;;4.3;;
51515;SDS011;37603;55.614;37.326;2023-02-23T14:07:28;19.5;;;7.3;;
51515;SDS011;37603;55.614;37.326;2023-02-23T14:13:28;11.8;;;4.4;;
51515;SDS011;37603;55.614;37.326;2023-02-23T14:19:29;18.2;;;7.3;;
51515;SDS011;37603;55.614;37.326;2023-02-23T14:31:21;19.3;;;6.5;;
51515;SDS011;37603;55.614;37.326;2023-02-23T14:37:23;12.8;;;5.3;;
51515;SDS011;37603;55.614;37.326;2023-02-23T14:49:17;11.2;;;4.5;;
51515;SDS011;37603;55.614;37.326;2023-02-23T14:55:17;9.9;;;4.8;;
51515;SDS011;37603;55.614;37.326;2023-02-23T15:07:13;11.2;;;5.0;;
51515;SDS011;37603;55.614;37.326;2023-02-23T15:13:10;21.2;;;7.3;;
51515;SDS011;37603;55.614;37.326;2023-02-23T15:19:09;17.6;;;6.0;;
51515;SDS011;37603;55.614;37.326;2023-02-23T15:25:10;13.1;;;4.6;;
51515;SDS011;37603;55.614;37.326;2023-02-23T15:31:07;16.1;;;5.6;;
51515;SDS011;37603;55.614;37.326;2023-02-23T15:37:03;12.2;;;5.0;;
51515;SDS011;37603;55.614;37.326;2023-02-23T15:43:01;11.4;;;4.9;;
51515;SDS011;37603;55.614;37.326;2023-02-23T15:48:59;14.3;;;5.2;;
51515;SDS011;37603;55.614;37.326;2023-02-23T15:54:58;10.9;;;4.8;;
51515;SDS011;37603;55.614;37.326;2023-02-23T16:00:56;13.3;;;4.8;;
51515;SDS011;37603;55.614;37.326;2023-02-23T16:06:55;10.4;;;4.4;;
51515;SDS011;37603;55.614;37.326;2023-02-23T16:12:52;10.2;;;4.3;;
51515;SDS011;37603;55.614;37.326;2023-02-23T16:18:51;12.4;;;4.9;;
51515;SDS011;37603;55.614;37.326;2023-02-23T16:24:52;13.3;;;5.7;;
51515;SDS011;37603;55.614;37.326;2023-02-23T16:30:49;12.7;;;5.8;;
51515;SDS011;37603;55.614;37.326;2023-02-23T16:36:47;20.0;;;6.9;;
51515;SDS011;37603;55.614;37.326;2023-02-23T16:42:43;19.0;;;7.0;;
51515;SDS011;37603;55.614;37.326;2023-02-23T16:48:42;19.3;;;6.6;;
51515;SDS011;37603;55.614;37.326;2023-02-23T16:54:40;14.9;;;6.2;;
51515;SDS011;37603;55.614;37.326;2023-02-23T17:00:38;14.8;;;6.2;;
51515;SDS011;37603;55.614;37.326;2023-02-23T17:06:36;15.8;;;6.0;;
51515;SDS011;37603;55.614;37.326;2023-02-23T17:12:35;17.4;;;6.2;;
51515;SDS011;37603;55.614;37.326;2023-02-23T17:18:34;13.2;;;5.3;;
51515;SDS011;37603;55.614;37.326;2023-02-23T17:24:31;14.1;;;5.3;;
51515;SDS011;37603;55.614;37.326;2023-02-23T17:30:30;18.2;;;6.6;;
51515;SDS011;37603;55.614;37.326;2023-02-23T17:36:28;19.1;;;6.5;;
51515;SDS011;37603;55.614;37.326;2023-02-23T17:42:28;14.8;;;5.7;;
51515;SDS011;37603;55.614;37.326;2023-02-23T17:48:25;18.9;;;6.4;;
51515;SDS011;37603;55.614;37.326;2023-02-23T17:54:23;13.8;;;5.2;;
51515;SDS011;37603;55.614;37.326;2023-02-23T18:00:21;18.5;;;7.2;;
51515;SDS011;37603;55.614;37.326;2023-02-23T18:06:19;18.3;;;6.9;;
51515;SDS011;37603;55.614;37.326;2023-02-23T18:12:17;19.8;;;6.8;;
51515;SDS011;37603;55.614;37.326;2023-02-23T18:18:15;17.7;;;6.7;;
51515;SDS011;37603;55.614;37.326;2023-02-23T18:24:14;16.7;;;6.2;;
51515;SDS011;37603;55.614;37.326;2023-02-23T18:30:12;15.4;;;6.1;;
51515;SDS011;37603;55.614;37.326;2023-02-23T18:36:18;13.7;;;5.9;;
51515;SDS011;37603;55.614;37.326;2023-02-23T18:42:08;19.4;;;7.3;;
51515;SDS011;37603;55.614;37.326;2023-02-23T18:48:07;15.1;;;6.4;;
51515;SDS011;37603;55.614;37.326;2023-02-23T18:54:05;20.8;;;6.4;;
51515;SDS011;37603;55.614;37.326;2023-02-23T19:00:03;16.3;;;6.8;;
51515;SDS011;37603;55.614;37.326;2023-02-23T19:06:01;16.8;;;6.3;;
51515;SDS011;37603;55.614;37.326;2023-02-23T19:11:59;17.3;;;6.4;;
51515;SDS011;37603;55.614;37.326;2023-02-23T19:17:58;17.7;;;6.1;;
51515;SDS011;37603;55.614;37.326;2023-02-23T19:23:56;15.5;;;6.0;;
51515;SDS011;37603;55.614;37.326;2023-02-23T19:29:54;10.8;;;5.4;;
51515;SDS011;37603;55.614;37.326;2023-02-23T19:35:52;14.7;;;5.6;;
51515;SDS011;37603;55.614;37.326;2023-02-23T19:41:51;21.7;;;7.0;;
51515;SDS011;37603;55.614;37.326;2023-02-23T19:47:50;17.6;;;6.8;;
51515;SDS011;37603;55.614;37.326;2023-02-23T19:53:47;17.7;;;6.8;;
51515;SDS011;37603;55.614;37.326;2023-02-23T19:59:45;19.2;;;7.3;;
51515;SDS011;37603;55.614;37.326;2023-02-23T20:05:44;20.3;;;7.6;;
51515;SDS011;37603;55.614;37.326;2023-02-23T20:11:42;20.5;;;8.0;;
51515;SDS011;37603;55.614;37.326;2023-02-23T20:17:40;20.2;;;7.7;;
51515;SDS011;37603;55.614;37.326;2023-02-23T20:23:39;18.1;;;7.1;;
51515;SDS011;37603;55.614;37.326;2023-02-23T20:29:37;20.2;;;7.3;;
51515;SDS011;37603;55.614;37.326;2023-02-23T20:35:35;17.7;;;7.3;;
51515;SDS011;37603;55.614;37.326;2023-02-23T20:41:33;17.8;;;6.4;;
51515;SDS011;37603;55.614;37.326;2023-02-23T20:47:31;17.6;;;6.0;;
51515;SDS011;37603;55.614;37.326;2023-02-23T20:53:30;19.0;;;7.0;;
51515;SDS011;37603;55.614;37.326;2023-02-23T20:59:28;15.1;;;5.8;;
51515;SDS011;37603;55.614;37.326;2023-02-23T21:05:27;15.7;;;6.0;;
51515;SDS011;37603;55.614;37.326;2023-02-23T21:11:24;17.3;;;5.6;;
51515;SDS011;37603;55.614;37.326;2023-02-23T21:17:23;14.3;;;5.4;;
51515;SDS011;37603;55.614;37.326;2023-02-23T21:23:21;13.4;;;5.1;;
51515;SDS011;37603;55.614;37.326;2023-02-23T21:29:19;12.4;;;5.1;;
51515;SDS011;37603;55.614;37.326;2023-02-23T21:35:18;13.1;;;5.0;;
51515;SDS011;37603;55.614;37.326;2023-02-23T21:41:16;11.9;;;5.1;;
51515;SDS011;37603;55.614;37.326;2023-02-23T21:47:14;14.0;;;5.1;;
51515;SDS011;37603;55.614;37.326;2023-02-23T21:53:12;12.5;;;5.6;;
51515;SDS011;37603;55.614;37.326;2023-02-23T21:59:10;18.9;;;7.4;;
51515;SDS011;37603;55.614;37.326;2023-02-23T22:05:09;25.9;;;9.0;;
51515;SDS011;37603;55.614;37.326;2023-02-23T22:11:08;21.3;;;8.3;;
51515;SDS011;37603;55.614;37.326;2023-02-23T22:17:05;13.2;;;5.8;;
51515;SDS011;37603;55.614;37.326;2023-02-23T22:23:03;12.3;;;5.5;;
51515;SDS011;37603;55.614;37.326;2023-02-23T22:29:02;10.3;;;5.0;;
51515;SDS011;37603;55.614;37.326;2023-02-23T22:35:00;11.1;;;4.3;;
51515;SDS011;37603;55.614;37.326;2023-02-23T22:40:58;15.6;;;5.4;;
51515;SDS011;37603;55.614;37.326;2023-02-23T22:46:56;10.2;;;4.6;;
51515;SDS011;37603;55.614;37.326;2023-02-23T22:52:55;12.9;;;5.1;;
51515;SDS011;37603;55.614;37.326;2023-02-23T22:58:53;12.8;;;4.6;;
51515;SDS011;37603;55.614;37.326;2023-02-23T23:04:51;14.2;;;5.0;;
51515;SDS011;37603;55.614;37.326;2023-02-23T23:10:49;12.4;;;4.7;;
51515;SDS011;37603;55.614;37.326;2023-02-23T23:16:48;9.8;;;4.1;;
51515;SDS011;37603;55.614;37.326;2023-02-23T23:22:46;9.4;;;4.1;;
51515;SDS011;37603;55.614;37.326;2023-02-23T23:28:45;9.0;;;4.0;;
51515;SDS011;37603;55.614;37.326;2023-02-23T23:34:43;11.8;;;4.3;;
51515;SDS011;37603;55.614;37.326;2023-02-23T23:40:41;9.4;;;4.0;;
51515;SDS011;37603;55.614;37.326;2023-02-23T23:46:40;12.4;;;4.9;;
51515;SDS011;37603;55.614;37.326;2023-02-23T23:52:37;14.9;;;5.1;;
51515;SDS011;37603;55.614;37.326;2023-02-23T23:58:36;14.6;;;4.8;;
